Time;durP1;ratioP1;P1;durP2;ratioP2;P2;SDS_P1;SDS_P2;PMS_P1;PMS_P2;Temp;Humidity;BMP_temperature;BMP_pressure;BME280_temperature;BME280_humidity;BME280_pressure;Samples;Min_cycle;Max_cycle;Signal;HPM_P1;HPM_P2
2023/09/20 00:02:50;;;;;;;10.30;7.30;;;;;;;10.98;94.32;99259.92;435803;1255;140084;-64
2023/09/20 00:12:56;;;;;;;8.50;6.90;;;;;;;10.92;95.46;99263.83;436551;1251;140631;-67
2023/09/20 00:23:03;;;;;;;6.40;5.90;;;;;;;10.88;95.96;99268.85;436005;1256;139968;-65
2023/09/20 00:33:08;;;;;;;;;;;;;;;10.82;96.41;99268.77;435784;1251;139392;-64
2023/09/20 00:43:15;;;;;;;8.50;6.90;;;;;;;10.75;96.69;99272.08;436490;1254;127888;-65
2023/09/20 00:53:22;;;;;;;9.00;6.30;;;;;;;10.69;97.05;99268.60;436339;1253;139575;-65
2023/09/20 01:03:29;;;;;;;8.30;6.30;;;;;;;10.62;96.96;99267.53;436204;1253;140706;-65
2023/09/20 01:13:35;;;;;;;6.90;5.80;;;;;;;10.60;97.19;99273.64;437026;1255;139517;-66
2023/09/20 01:23:42;;;;;;;6.80;6.00;;;;;;;10.62;97.38;99269.99;436083;1251;139552;-65
2023/09/20 01:33:49;;;;;;;30.00;6.40;;;;;;;10.59;97.12;99279.96;436386;1251;140932;-62
2023/09/20 01:43:56;;;;;;;6.70;5.80;;;;;;;10.54;97.44;99272.30;436116;1251;140680;-66
2023/09/20 01:54:03;;;;;;;6.50;5.80;;;;;;;10.47;97.78;99270.61;436449;1251;139359;-66
2023/09/20 02:04:09;;;;;;;11.70;5.20;;;;;;;10.41;97.81;99278.52;436645;1255;139701;-63
2023/09/20 02:14:16;;;;;;;6.20;5.40;;;;;;;10.27;97.76;99282.29;436839;1253;139222;-65
2023/09/20 02:24:23;;;;;;;6.30;5.30;;;;;;;10.18;98.41;99285.85;436846;1251;139634;-64
2023/09/20 02:34:31;;;;;;;6.50;5.20;;;;;;;10.15;98.98;99289.02;437144;1253;139648;-66
2023/09/20 02:44:55;;;;;;;8.20;6.90;;;;;;;10.11;98.69;99285.45;437230;1255;139133;-64
2023/09/20 02:55:04;;;;;;;10.30;7.20;;;;;;;10.13;99.34;99277.13;435550;1255;141305;-66
2023/09/20 03:05:11;;;;;;;7.70;6.10;;;;;;;10.29;100.00;99280.54;436053;1251;141204;-66
2023/09/20 03:15:21;;;;;;;6.10;5.30;;;;;;;10.27;99.90;99276.84;438477;1255;140011;-66
2023/09/20 03:25:29;;;;;;;7.10;6.30;;;;;;;10.14;99.89;99273.51;437373;1251;139826;-66
2023/09/20 03:35:38;;;;;;;8.40;7.30;;;;;;;10.17;100.00;99271.39;436938;1251;140538;-65
2023/09/20 03:45:45;;;;;;;7.00;6.20;;;;;;;10.24;100.00;99271.30;437087;1254;139325;-64
2023/09/20 03:55:52;;;;;;;8.80;7.90;;;;;;;10.15;100.00;99270.52;437369;1255;139962;-64
2023/09/20 04:05:59;;;;;;;8.10;6.50;;;;;;;10.05;100.00;99275.52;436974;1253;140222;-65
2023/09/20 04:16:06;;;;;;;7.20;6.50;;;;;;;9.97;100.00;99279.40;436411;1254;139421;-64
2023/09/20 04:26:12;;;;;;;14.20;7.50;;;;;;;9.81;100.00;99281.27;436218;1251;139826;-65
2023/09/20 04:36:18;;;;;;;10.90;8.20;;;;;;;9.77;100.00;99289.04;435992;1255;141401;-65
2023/09/20 04:46:25;;;;;;;22.60;8.60;;;;;;;9.88;100.00;99299.39;436220;1254;143439;-65
2023/09/20 04:56:31;;;;;;;10.80;9.10;;;;;;;10.01;100.00;99298.02;436810;1254;140949;-66
2023/09/20 05:06:38;;;;;;;11.20;9.50;;;;;;;10.24;100.00;99302.08;437701;1254;140898;-66
2023/09/20 05:16:44;;;;;;;12.00;9.30;;;;;;;10.54;100.00;99303.02;436083;1254;141881;-65
2023/09/20 05:26:49;;;;;;;9.50;8.20;;;;;;;11.14;100.00;99308.58;436014;1255;139684;-66
2023/09/20 05:36:56;;;;;;;6.90;6.10;;;;;;;15.11;100.00;99308.04;435918;1255;139414;-66
2023/09/20 05:47:03;;;;;;;4.90;4.40;;;;;;;20.37;99.68;99307.56;435838;1251;139321;-67
2023/09/20 05:57:09;;;;;;;8.40;4.00;;;;;;;24.79;91.92;99317.23;436824;1255;139271;-65
2023/09/20 06:07:15;;;;;;;5.60;3.40;;;;;;;28.68;80.57;99316.77;436193;1255;140605;-66
2023/09/20 06:17:22;;;;;;;4.10;3.00;;;;;;;31.37;70.36;99323.22;436949;1254;139306;-65
2023/09/20 06:27:30;;;;;;;5.60;2.90;;;;;;;33.42;62.88;99326.23;436223;1254;138708;-67
2023/09/20 06:37:37;;;;;;;3.10;2.80;;;;;;;35.92;55.82;99334.43;438098;1253;138617;-67
2023/09/20 06:47:44;;;;;;;3.80;2.20;;;;;;;38.43;45.46;99332.84;438335;1253;138345;-67
2023/09/20 06:57:51;;;;;;;2.40;2.00;;;;;;;40.55;40.43;99337.21;436050;1256;138494;-66
2023/09/20 07:08:21;;;;;;;4.00;2.40;;;;;;;41.86;35.54;99337.09;435917;1254;139146;-66
2023/09/20 07:18:28;;;;;;;2.30;2.10;;;;;;;42.65;32.76;99347.36;436076;1254;139327;-66
2023/09/20 07:28:36;;;;;;;2.90;2.00;;;;;;;44.03;30.26;99347.88;436659;1255;140620;-65
2023/09/20 07:38:42;;;;;;;1.40;1.30;;;;;;;44.80;27.84;99349.29;436284;1254;138572;-66
2023/09/20 07:48:50;;;;;;;2.40;1.40;;;;;;;45.95;26.68;99348.83;435899;1255;138698;-67
2023/09/20 07:58:57;;;;;;;6.80;2.50;;;;;;;46.25;24.88;99345.29;436278;1253;138462;-66
2023/09/20 08:09:04;;;;;;;2.10;1.60;;;;;;;46.84;24.04;99344.14;435976;1251;138410;-67
2023/09/20 08:19:20;;;;;;;1.60;1.40;;;;;;;47.40;23.16;99339.28;435993;1255;138812;-65
2023/09/20 09:00:42;;;;;;;3.00;1.20;;;;;;;37.16;24.26;99320.02;436016;1254;140042;-65
2023/09/20 09:10:48;;;;;;;3.30;1.60;;;;;;;33.12;26.98;99327.80;435989;1255;138584;-64
2023/09/20 09:20:58;;;;;;;2.20;1.40;;;;;;;30.25;29.70;99320.07;435820;1255;138338;-63
2023/09/20 09:31:05;;;;;;;1.00;0.90;;;;;;;28.48;31.73;99324.55;435933;1256;140200;-65
2023/09/20 09:41:11;;;;;;;2.90;1.30;;;;;;;27.09;33.64;99333.31;435962;1256;138781;-64
2023/09/20 09:51:18;;;;;;;3.20;1.10;;;;;;;26.07;35.19;99336.50;436066;1253;139432;-63
2023/09/20 10:01:24;;;;;;;1.50;0.80;;;;;;;25.63;36.72;99323.71;436001;1254;138994;-63
2023/09/20 10:11:30;;;;;;;2.50;1.30;;;;;;;25.32;37.61;99319.06;435687;1256;139440;-64
2023/09/20 10:21:40;;;;;;;1.30;0.80;;;;;;;25.10;38.64;99320.51;435635;1256;138907;-64
2023/09/20 10:31:49;;;;;;;1.40;1.00;;;;;;;24.95;38.79;99326.02;435998;1256;138868;-64
2023/09/20 10:41:56;;;;;;;1.60;1.20;;;;;;;24.50;39.14;99326.27;436671;1256;138413;-64
2023/09/20 10:52:03;;;;;;;2.60;1.50;;;;;;;24.22;39.97;99316.98;435608;1253;139522;-61
2023/09/20 11:02:12;;;;;;;4.30;1.30;;;;;;;23.92;40.88;99311.15;436226;1255;138319;-67
2023/09/20 11:12:20;;;;;;;3.10;1.50;;;;;;;23.67;41.47;99310.75;435887;1256;138901;-63
2023/09/20 11:22:26;;;;;;;1.70;1.50;;;;;;;23.47;42.24;99303.50;435710;1255;138583;-63
2023/09/20 11:32:32;;;;;;;2.10;1.30;;;;;;;23.48;42.86;99300.38;435810;1256;140031;-61
2023/09/20 11:42:43;;;;;;;1.10;0.80;;;;;;;23.42;43.03;99294.63;436305;1256;140248;-62
2023/09/20 11:52:50;;;;;;;3.30;1.60;;;;;;;23.35;43.33;99291.25;436147;1255;138631;-63
2023/09/20 12:02:56;;;;;;;1.30;1.10;;;;;;;23.32;43.48;99277.99;436379;1251;138458;-62
2023/09/20 12:13:03;;;;;;;1.10;1.00;;;;;;;23.27;43.60;99275.38;435788;1251;139109;-61
2023/09/20 12:23:09;;;;;;;5.40;1.70;;;;;;;23.19;43.92;99267.02;435716;1256;140060;-61
2023/09/20 12:33:15;;;;;;;3.40;1.40;;;;;;;23.23;43.70;99257.67;435671;1254;141161;-61
2023/09/20 12:43:21;;;;;;;6.70;1.40;;;;;;;23.27;43.85;99254.18;435823;1251;139168;-62
2023/09/20 12:53:28;;;;;;;4.30;2.10;;;;;;;23.40;43.85;99251.20;435786;1254;139379;-61
2023/09/20 13:03:33;;;;;;;2.20;1.30;;;;;;;23.49;43.53;99233.48;435619;1257;138613;-62
2023/09/20 13:13:41;;;;;;;3.50;1.50;;;;;;;23.49;43.39;99226.31;435848;1257;139848;-61
2023/09/20 13:23:47;;;;;;;2.70;1.20;;;;;;;23.50;43.55;99220.27;435695;1256;140695;-62
2023/09/20 13:33:53;;;;;;;2.70;1.40;;;;;;;23.64;43.57;99216.23;436172;1256;140733;-62
2023/09/20 13:43:59;;;;;;;4.50;1.20;;;;;;;23.72;43.57;99214.34;435894;1257;138436;-63
2023/09/20 13:54:06;;;;;;;2.20;1.40;;;;;;;23.70;43.46;99214.17;436135;1257;139763;-64
2023/09/20 14:04:12;;;;;;;3.00;1.00;;;;;;;23.53;43.55;99214.65;436906;1251;138564;-63
2023/09/20 14:14:25;;;;;;;5.60;2.00;;;;;;;23.40;43.98;99210.40;435842;1256;139476;-62
2023/09/20 14:24:31;;;;;;;3.90;1.50;;;;;;;23.22;44.36;99208.64;435839;1251;139970;-61
2023/09/20 14:34:37;;;;;;;2.40;1.20;;;;;;;23.01;44.60;99196.06;436070;1257;140142;-62
2023/09/20 14:44:43;;;;;;;4.70;1.60;;;;;;;22.83;44.60;99187.88;436436;1251;140786;-61
2023/09/20 14:54:50;;;;;;;2.30;1.70;;;;;;;22.62;45.23;99190.13;436107;1256;138760;-61
2023/09/20 15:04:56;;;;;;;2.40;1.10;;;;;;;22.50;45.56;99191.13;436716;1255;138649;-62
2023/09/20 15:15:02;;;;;;;2.10;0.90;;;;;;;22.50;45.67;99191.53;436471;1254;138933;-62
2023/09/20 15:25:10;;;;;;;3.00;1.60;;;;;;;22.27;46.44;99187.80;436539;1255;138646;-60
2023/09/20 15:35:14;;;;;;;;;;;;;;;22.07;47.87;99191.03;436309;1251;139453;-61
2023/09/20 15:45:21;;;;;;;6.80;2.20;;;;;;;21.87;48.88;99194.14;435875;1251;126708;-60
2023/09/20 15:55:27;;;;;;;4.10;1.80;;;;;;;21.59;49.95;99190.80;436101;1255;138423;-61
2023/09/20 16:05:33;;;;;;;3.80;2.10;;;;;;;21.35;50.72;99186.98;436007;1256;139948;-61
2023/09/20 16:15:40;;;;;;;3.10;2.50;;;;;;;21.11;52.77;99187.70;436120;1251;139407;-61
2023/09/20 16:25:46;;;;;;;5.40;2.60;;;;;;;20.79;53.50;99182.58;436612;1256;138574;-62
2023/09/20 16:35:52;;;;;;;13.30;5.10;;;;;;;20.46;54.30;99177.17;435835;1251;139747;-60
2023/09/20 16:45:58;;;;;;;8.50;2.50;;;;;;;20.12;55.49;99177.96;436011;1255;138710;-60
2023/09/20 16:56:04;;;;;;;7.10;2.90;;;;;;;19.67;57.31;99184.79;436168;1256;138523;-61
2023/09/20 17:06:11;;;;;;;8.70;3.20;;;;;;;19.17;59.39;99188.67;435702;1251;139680;-59
2023/09/20 17:16:17;;;;;;;8.70;3.00;;;;;;;18.74;60.98;99196.13;436268;1255;139852;-61
2023/09/20 17:26:24;;;;;;;10.20;5.80;;;;;;;18.33;62.58;99208.36;435797;1251;139270;-61
2023/09/20 17:36:30;;;;;;;4.80;3.30;;;;;;;17.92;63.97;99216.04;435909;1256;139449;-61
2023/09/20 17:46:38;;;;;;;6.30;3.50;;;;;;;17.54;65.10;99221.02;436035;1251;140252;-62
2023/09/20 17:56:47;;;;;;;8.90;3.80;;;;;;;17.20;65.97;99226.08;436214;1251;140411;-63
2023/09/20 18:06:53;;;;;;;7.20;3.90;;;;;;;16.87;66.92;99230.77;436511;1256;139859;-62
2023/09/20 18:17:00;;;;;;;9.30;4.20;;;;;;;16.62;67.74;99236.34;436089;1251;140571;-61
2023/09/20 18:27:06;;;;;;;11.20;5.90;;;;;;;16.38;68.39;99238.20;436112;1256;139106;-61
2023/09/20 18:37:16;;;;;;;10.80;5.10;;;;;;;16.20;69.23;99242.92;447857;1251;139636;-61
2023/09/20 18:47:22;;;;;;;7.80;5.80;;;;;;;16.04;69.66;99242.36;436085;1255;139276;-62
2023/09/20 18:57:51;;;;;;;8.20;5.80;;;;;;;15.94;70.13;99243.45;435865;1256;139243;-61
2023/09/20 19:07:57;;;;;;;8.30;5.20;;;;;;;15.91;70.65;99247.08;436040;1251;139170;-61
2023/09/20 19:18:07;;;;;;;11.10;5.50;;;;;;;15.87;71.03;99250.48;435940;1254;153551;-62
2023/09/20 19:28:13;;;;;;;6.70;4.80;;;;;;;15.82;71.57;99256.16;436750;1255;142117;-62
2023/09/20 19:38:19;;;;;;;6.90;4.90;;;;;;;15.75;71.88;99255.59;436708;1255;139363;-62
2023/09/20 19:48:25;;;;;;;9.70;5.80;;;;;;;15.63;72.17;99256.65;436624;1252;139907;-61
2023/09/20 19:58:31;;;;;;;12.50;5.50;;;;;;;15.43;72.54;99253.81;436104;1254;140733;-61
2023/09/20 20:08:38;;;;;;;8.20;5.20;;;;;;;15.22;73.39;99258.73;435949;1255;139576;-63
2023/09/20 20:18:45;;;;;;;13.10;5.80;;;;;;;15.01;73.97;99253.86;436134;1251;139192;-61
2023/09/20 20:28:51;;;;;;;8.60;5.00;;;;;;;14.82;74.84;99244.97;436038;1255;139492;-62
2023/09/20 20:38:57;;;;;;;6.10;5.10;;;;;;;14.65;75.34;99245.15;436103;1253;138938;-62
2023/09/20 20:49:03;;;;;;;6.20;5.60;;;;;;;14.52;75.85;99248.48;436178;1251;139313;-61
2023/09/20 20:59:10;;;;;;;6.50;4.70;;;;;;;14.41;76.18;99252.60;436261;1255;139317;-61
2023/09/20 21:09:16;;;;;;;5.40;4.30;;;;;;;14.34;76.50;99252.52;435908;1253;139684;-60
2023/09/20 21:19:23;;;;;;;4.60;3.90;;;;;;;14.26;76.94;99249.29;436044;1253;139695;-62
2023/09/20 21:29:29;;;;;;;6.50;4.00;;;;;;;14.26;77.43;99246.33;436815;1253;139472;-65
2023/09/20 21:39:35;;;;;;;7.00;3.80;;;;;;;14.24;77.73;99238.08;435917;1253;139312;-60
2023/09/20 21:49:41;;;;;;;7.10;3.20;;;;;;;14.19;77.97;99233.90;436034;1254;139340;-61
2023/09/20 21:59:47;;;;;;;3.70;3.40;;;;;;;14.21;78.28;99232.27;436195;1252;139404;-62
2023/09/20 22:09:54;;;;;;;6.10;3.60;;;;;;;14.21;78.36;99221.41;436137;1251;140756;-61
2023/09/20 22:20:00;;;;;;;6.90;3.70;;;;;;;14.22;78.54;99219.58;436663;1255;139669;-61
2023/09/20 22:30:08;;;;;;;4.60;3.70;;;;;;;14.21;78.58;99217.17;435946;1256;140316;-62
2023/09/20 22:40:16;;;;;;;6.40;3.10;;;;;;;14.17;78.80;99217.70;436721;1255;140562;-61
2023/09/20 22:50:23;;;;;;;5.10;3.70;;;;;;;14.16;79.10;99207.54;436944;1253;139030;-60
2023/09/20 23:00:33;;;;;;;9.60;5.20;;;;;;;14.15;79.27;99211.32;436726;1251;139118;-61
2023/09/20 23:10:43;;;;;;;6.60;4.60;;;;;;;14.09;79.35;99206.88;436038;1253;139299;-61
2023/09/20 23:20:50;;;;;;;7.30;5.40;;;;;;;14.03;79.61;99204.97;435999;1256;139132;-62
2023/09/20 23:30:57;;;;;;;8.20;5.30;;;;;;;13.95;79.90;99200.48;436012;1255;139595;-62
2023/09/20 23:41:11;;;;;;;7.60;5.70;;;;;;;13.87;80.08;99193.79;436334;1255;139517;-62
2023/09/20 23:51:21;;;;;;;9.10;5.90;;;;;;;13.79;80.59;99192.33;436865;1253;139807;-61
